createdAt,value
2017-07-21T00:00:38.760Z,8.57
2017-07-21T00:03:07.236Z,9.67
2017-07-21T00:05:35.101Z,8.87
2017-07-21T00:08:02.891Z,9.47
2017-07-21T00:10:31.312Z,8.87
2017-07-21T00:12:59.118Z,8.63
2017-07-21T00:15:43.017Z,8.87
2017-07-21T00:18:12.168Z,9.23
2017-07-21T00:20:40.042Z,8.50
2017-07-21T00:23:07.752Z,8.83
2017-07-21T00:25:35.986Z,9.60
2017-07-21T00:28:03.709Z,9.20
2017-07-21T00:30:33.059Z,8.27
2017-07-21T00:33:01.110Z,10.43
2017-07-21T00:35:28.764Z,11.13
2017-07-21T00:37:56.506Z,10.47
2017-07-21T00:40:24.223Z,10.80
2017-07-21T00:42:51.868Z,9.80
2017-07-21T00:45:20.501Z,12.13
2017-07-21T00:47:48.901Z,13.57
2017-07-21T00:50:16.572Z,13.30
2017-07-21T00:52:44.293Z,11.73
2017-07-21T00:55:12.032Z,12.60
2017-07-21T00:57:39.782Z,14.40
2017-07-21T01:00:07.934Z,12.90
2017-07-21T01:02:35.624Z,11.73
2017-07-21T01:07:48.961Z,11.93
2017-07-21T01:10:16.708Z,12.50
2017-07-21T01:12:44.387Z,11.10
2017-07-21T01:15:12.046Z,10.97
2017-07-21T01:17:39.704Z,11.50
2017-07-21T01:20:07.352Z,10.50
2017-07-21T01:22:34.997Z,10.83
2017-07-21T01:25:02.707Z,11.33
2017-07-21T01:27:30.412Z,11.50
2017-07-21T01:29:58.100Z,11.47
2017-07-21T01:32:26.473Z,10.63
2017-07-21T01:34:54.131Z,10.77
2017-07-21T01:37:21.841Z,12.37
2017-07-21T01:39:49.658Z,10.20
2017-07-21T01:42:17.413Z,10.47
2017-07-21T01:44:46.229Z,11.43
2017-07-21T01:47:13.902Z,10.50
2017-07-21T01:49:41.617Z,12.50
2017-07-21T01:52:09.315Z,11.93
2017-07-21T01:54:37.133Z,11.53
2017-07-21T01:57:05.017Z,12.87
2017-07-21T01:59:32.795Z,14.27
2017-07-21T02:02:01.295Z,10.93
2017-07-21T02:04:29.008Z,18.63
2017-07-21T02:06:57.919Z,11.00
2017-07-21T02:09:25.690Z,13.00
2017-07-21T02:11:54.381Z,13.27
2017-07-21T02:14:22.189Z,11.20
2017-07-21T02:16:50.353Z,12.50
2017-07-21T02:19:18.018Z,10.70
2017-07-21T02:21:45.758Z,11.97
2017-07-21T02:24:13.538Z,15.30
2017-07-21T02:26:41.282Z,13.00
2017-07-21T02:29:08.947Z,12.20
2017-07-21T02:31:36.613Z,13.03
2017-07-21T02:34:04.304Z,13.00
2017-07-21T02:36:31.990Z,11.67
2017-07-21T02:38:59.773Z,11.90
2017-07-21T02:41:28.157Z,14.87
2017-07-21T02:43:55.778Z,16.97
2017-07-21T02:46:23.460Z,14.57
2017-07-21T02:48:51.159Z,20.00
2017-07-21T02:51:18.807Z,14.37
2017-07-21T02:53:46.452Z,13.43
2017-07-21T02:56:14.157Z,12.60
2017-07-21T02:58:41.862Z,13.67
2017-07-21T03:01:09.588Z,13.80
2017-07-21T03:03:37.295Z,12.50
2017-07-21T03:06:04.982Z,10.70
2017-07-21T03:08:32.711Z,16.50
2017-07-21T03:11:00.776Z,13.67
2017-07-21T03:13:28.476Z,12.57
2017-07-21T03:15:56.858Z,15.27
2017-07-21T03:18:24.519Z,12.60
2017-07-21T03:20:52.250Z,12.67
2017-07-21T03:23:22.899Z,12.30
2017-07-21T03:25:50.618Z,12.77
2017-07-21T03:28:18.360Z,11.87
2017-07-21T03:30:47.108Z,13.50
2017-07-21T03:33:14.905Z,15.20
2017-07-21T03:35:42.619Z,13.40
2017-07-21T03:38:10.393Z,12.03
2017-07-21T03:40:38.065Z,14.93
2017-07-21T03:43:05.866Z,13.20
2017-07-21T03:45:34.146Z,13.87
2017-07-21T03:48:01.801Z,17.80
2017-07-21T03:50:29.444Z,13.47
2017-07-21T03:52:57.625Z,20.00
2017-07-21T03:55:25.309Z,14.40
2017-07-21T03:57:52.952Z,15.10
2017-07-21T04:00:20.957Z,17.93
2017-07-21T04:02:48.698Z,12.37
2017-07-21T04:05:16.402Z,14.80
2017-07-21T04:07:44.130Z,17.80
2017-07-21T04:10:12.883Z,14.37
2017-07-21T04:12:42.353Z,15.27
2017-07-21T04:15:10.142Z,15.00
2017-07-21T04:17:37.827Z,15.83
2017-07-21T04:20:05.475Z,15.10
2017-07-21T04:22:33.175Z,13.07
2017-07-21T04:25:02.001Z,12.10
2017-07-21T04:27:30.464Z,12.83
2017-07-21T04:29:59.113Z,11.33
2017-07-21T04:32:30.482Z,18.53
2017-07-21T04:34:59.646Z,12.07
2017-07-21T04:37:27.462Z,13.73
2017-07-21T04:39:55.188Z,11.80
2017-07-21T04:42:22.900Z,18.40
2017-07-21T04:44:50.670Z,15.63
2017-07-21T04:47:19.136Z,12.90
2017-07-21T04:49:46.893Z,11.30
2017-07-21T04:52:14.602Z,17.00
2017-07-21T04:54:42.371Z,17.40
2017-07-21T04:57:10.165Z,16.50
2017-07-21T04:59:37.784Z,17.00
2017-07-21T05:02:05.433Z,12.07
2017-07-21T05:04:33.136Z,13.20
2017-07-21T05:07:01.525Z,17.53
2017-07-21T05:09:30.127Z,21.80
2017-07-21T05:11:58.570Z,15.63
2017-07-21T05:14:26.241Z,15.53
2017-07-21T05:16:53.894Z,12.83
2017-07-21T05:19:22.241Z,15.87
2017-07-21T05:21:49.854Z,16.77
2017-07-21T05:24:17.484Z,14.57
2017-07-21T05:26:45.075Z,13.70
2017-07-21T05:29:12.686Z,20.50
2017-07-21T05:31:40.344Z,17.60
2017-07-21T05:34:09.792Z,23.40
2017-07-21T05:36:38.973Z,14.53
2017-07-21T05:39:08.718Z,17.60
2017-07-21T05:41:36.444Z,15.57
2017-07-21T05:44:05.053Z,17.03
2017-07-21T05:46:32.673Z,17.10
2017-07-21T05:49:02.343Z,15.03
2017-07-21T05:51:30.132Z,18.70
2017-07-21T05:54:00.602Z,17.93
2017-07-21T05:56:29.289Z,14.33
2017-07-21T05:58:57.570Z,18.83
2017-07-21T06:01:26.126Z,20.53
2017-07-21T06:03:55.663Z,16.07
2017-07-21T06:06:23.279Z,13.30
2017-07-21T06:08:50.938Z,16.23
2017-07-21T06:11:18.553Z,17.10
2017-07-21T06:13:47.365Z,13.20
2017-07-21T06:16:16.259Z,17.10
2017-07-21T06:18:44.159Z,12.70
2017-07-21T06:21:11.796Z,12.80
2017-07-21T06:23:39.472Z,14.70
2017-07-21T06:26:07.034Z,12.07
2017-07-21T06:28:35.290Z,10.90
2017-07-21T06:31:04.310Z,12.03
2017-07-21T06:33:31.895Z,10.67
2017-07-21T06:36:01.268Z,12.10
2017-07-21T06:38:29.840Z,10.80
2017-07-21T06:40:58.102Z,11.00
2017-07-21T06:43:25.726Z,11.33
2017-07-21T06:45:53.481Z,10.90
2017-07-21T06:48:21.053Z,13.83
2017-07-21T06:50:50.338Z,17.67
2017-07-21T06:53:19.969Z,12.33
2017-07-21T06:55:47.897Z,12.27
2017-07-21T06:58:16.403Z,10.63
2017-07-21T07:00:44.127Z,9.83
2017-07-21T07:03:11.792Z,11.23
2017-07-21T07:05:39.362Z,10.67
2017-07-21T07:08:07.778Z,15.40
2017-07-21T07:10:35.555Z,11.73
2017-07-21T07:13:03.370Z,13.17
2017-07-21T07:15:31.840Z,11.33
2017-07-21T07:18:00.512Z,13.00
2017-07-21T07:20:28.615Z,11.47
2017-07-21T07:22:58.422Z,9.70
2017-07-21T07:25:26.555Z,9.60
2017-07-21T07:27:56.120Z,9.23
2017-07-21T07:30:24.113Z,8.70
2017-07-21T07:32:51.788Z,8.83
2017-07-21T07:35:19.377Z,10.00
2017-07-21T07:37:46.982Z,9.33
2017-07-21T07:40:14.580Z,11.60
2017-07-21T07:42:42.455Z,9.47
2017-07-21T07:45:11.122Z,9.00
2017-07-21T07:47:39.525Z,9.13
2017-07-21T07:50:08.070Z,9.10
2017-07-21T07:52:35.657Z,9.53
2017-07-21T07:55:03.332Z,10.43
2017-07-21T07:57:31.581Z,11.80
2017-07-21T08:00:00.146Z,9.17
2017-07-21T08:02:28.331Z,10.93
2017-07-21T08:04:57.213Z,9.10
2017-07-21T08:07:25.038Z,9.93
2017-07-21T08:09:52.633Z,11.90
2017-07-21T08:12:20.420Z,9.87
2017-07-21T08:14:49.179Z,9.33
2017-07-21T08:17:16.819Z,12.67
2017-07-21T08:19:44.366Z,8.33
2017-07-21T08:22:11.983Z,8.90
2017-07-21T08:24:39.659Z,8.77
2017-07-21T08:27:07.307Z,13.90
2017-07-21T08:29:34.959Z,9.40
2017-07-21T08:32:02.635Z,10.07
2017-07-21T08:34:30.235Z,12.10
2017-07-21T08:36:57.798Z,10.83
2017-07-21T08:39:25.393Z,9.20
2017-07-21T08:41:53.015Z,14.37
2017-07-21T08:44:20.579Z,10.60
2017-07-21T08:46:49.069Z,10.63
2017-07-21T08:49:17.498Z,13.97
2017-07-21T08:51:46.003Z,10.63
2017-07-21T08:54:13.650Z,14.00
2017-07-21T08:56:41.210Z,9.30
2017-07-21T08:59:09.486Z,9.47
2017-07-21T09:01:37.105Z,8.07
2017-07-21T09:04:04.696Z,7.70
2017-07-21T09:06:32.250Z,9.03
2017-07-21T09:08:59.908Z,9.00
2017-07-21T09:11:27.507Z,8.30
2017-07-21T09:13:55.109Z,8.73
2017-07-21T09:16:22.787Z,7.03
2017-07-21T09:18:50.354Z,5.97
2017-07-21T09:21:17.988Z,7.77
2017-07-21T09:23:45.670Z,9.20
2017-07-21T09:26:13.247Z,8.40
2017-07-21T09:28:40.855Z,5.93
2017-07-21T09:31:08.446Z,9.10
2017-07-21T09:33:36.983Z,6.77
2017-07-21T09:36:04.817Z,7.27
2017-07-21T09:38:32.471Z,8.07
2017-07-21T09:41:00.081Z,6.13
2017-07-21T09:43:29.201Z,8.10
2017-07-21T09:45:58.070Z,6.87
2017-07-21T09:48:26.373Z,6.33
2017-07-21T09:50:54.036Z,7.80
2017-07-21T09:53:22.506Z,11.33
2017-07-21T09:55:52.131Z,9.20
2017-07-21T09:58:20.048Z,6.57
2017-07-21T10:00:48.267Z,7.00
2017-07-21T10:03:15.847Z,10.97
2017-07-21T10:05:44.202Z,6.57
2017-07-21T10:08:12.811Z,6.57
2017-07-21T10:10:41.236Z,6.23
2017-07-21T10:13:08.853Z,7.13
2017-07-21T10:15:36.469Z,8.67
2017-07-21T10:18:04.031Z,5.80
2017-07-21T10:20:31.624Z,12.17
2017-07-21T10:22:59.334Z,6.20
2017-07-21T10:25:26.942Z,5.53
2017-07-21T10:27:55.540Z,5.10
2017-07-21T10:30:23.344Z,5.20
2017-07-21T10:32:51.321Z,6.43
2017-07-21T10:35:19.963Z,5.63
2017-07-21T10:37:47.597Z,6.00
2017-07-21T10:40:15.184Z,10.00
2017-07-21T10:42:42.757Z,6.37
2017-07-21T10:45:14.942Z,5.23
2017-07-21T10:47:42.520Z,8.40
2017-07-21T10:50:10.114Z,6.43
2017-07-21T10:52:37.724Z,6.30
2017-07-21T10:55:05.294Z,6.33
2017-07-21T10:57:32.875Z,6.20
2017-07-21T11:00:00.478Z,5.70
2017-07-21T11:02:28.919Z,6.10
2017-07-21T11:04:58.326Z,6.10
2017-07-21T11:07:28.079Z,6.17
2017-07-21T11:09:56.531Z,6.93
2017-07-21T11:12:25.910Z,6.60
2017-07-21T11:14:53.822Z,5.67
2017-07-21T11:17:22.291Z,6.40
2017-07-21T11:19:50.841Z,7.00
2017-07-21T11:22:18.456Z,7.43
2017-07-21T11:24:47.549Z,7.13
2017-07-21T11:27:16.404Z,6.23
2017-07-21T11:29:45.805Z,6.87
2017-07-21T11:32:13.615Z,5.67
2017-07-21T11:34:41.753Z,6.13
2017-07-21T11:37:11.394Z,7.80
2017-07-21T11:39:39.008Z,9.60
2017-07-21T11:42:06.676Z,6.60
2017-07-21T11:44:34.482Z,6.23
2017-07-21T11:47:02.447Z,6.20
2017-07-21T11:49:30.049Z,7.33
2017-07-21T11:51:58.067Z,7.93
2017-07-21T11:54:25.694Z,7.67
2017-07-21T11:56:53.280Z,8.97
2017-07-21T11:59:20.890Z,6.50
2017-07-21T12:01:48.479Z,8.80
2017-07-21T12:04:17.872Z,5.93
2017-07-21T12:06:45.450Z,6.27
2017-07-21T12:09:13.066Z,6.77
2017-07-21T12:11:40.668Z,9.37
2017-07-21T12:14:08.288Z,6.00
2017-07-21T12:16:35.908Z,6.43
2017-07-21T12:19:03.496Z,7.20
2017-07-21T12:21:31.117Z,6.63
2017-07-21T12:23:58.802Z,6.80
2017-07-21T12:26:26.388Z,6.50
2017-07-21T12:28:53.992Z,7.37
2017-07-21T12:31:21.662Z,6.50
2017-07-21T12:33:49.253Z,6.40
2017-07-21T12:36:17.710Z,7.10
2017-07-21T12:38:45.344Z,7.10
2017-07-21T12:41:12.951Z,6.40
2017-07-21T12:43:40.631Z,7.00
2017-07-21T12:46:08.311Z,6.20
2017-07-21T12:48:35.919Z,7.37
2017-07-21T12:51:03.491Z,7.53
2017-07-21T12:53:31.198Z,6.60
2017-07-21T12:55:58.749Z,7.20
2017-07-21T12:58:26.341Z,8.97
2017-07-21T13:00:54.609Z,6.80
2017-07-21T13:03:23.035Z,7.43
2017-07-21T13:05:51.669Z,8.63
2017-07-21T13:08:19.412Z,6.80
2017-07-21T13:10:46.999Z,7.70
2017-07-21T13:13:14.555Z,6.50
2017-07-21T13:15:43.641Z,7.60
2017-07-21T13:18:12.141Z,7.20
2017-07-21T13:20:40.087Z,7.00
2017-07-21T13:23:07.717Z,7.70
2017-07-21T13:25:36.225Z,9.77
2017-07-21T13:28:03.755Z,8.10
2017-07-21T13:30:32.632Z,7.17
2017-07-21T13:33:01.230Z,7.10
2017-07-21T13:35:29.025Z,6.90
2017-07-21T13:37:57.218Z,7.30
2017-07-21T13:40:25.620Z,7.40
2017-07-21T13:42:54.148Z,7.00
2017-07-21T13:45:22.161Z,7.33
2017-07-21T13:47:50.334Z,9.10
2017-07-21T13:50:18.796Z,16.23
2017-07-21T13:52:46.421Z,7.90
2017-07-21T13:55:15.583Z,7.33
2017-07-21T13:57:44.002Z,7.97
2017-07-21T14:00:13.056Z,10.00
2017-07-21T14:02:40.909Z,11.10
2017-07-21T14:05:09.545Z,7.70
2017-07-21T14:07:37.874Z,7.37
2017-07-21T14:10:06.086Z,7.83
2017-07-21T14:12:34.957Z,7.20
2017-07-21T14:15:02.535Z,6.93
2017-07-21T14:17:30.824Z,9.17
2017-07-21T14:19:59.306Z,7.27
2017-07-21T14:22:26.909Z,7.23
2017-07-21T14:24:54.514Z,7.07
2017-07-21T14:27:22.858Z,8.43
2017-07-21T14:29:51.314Z,11.00
2017-07-21T14:32:19.206Z,7.00
2017-07-21T14:34:46.791Z,7.60
2017-07-21T14:37:15.840Z,7.30
2017-07-21T14:39:43.474Z,6.97
2017-07-21T14:42:12.215Z,6.43
2017-07-21T14:44:40.079Z,7.03
2017-07-21T14:47:09.271Z,6.07
2017-07-21T14:49:38.482Z,8.43
2017-07-21T14:52:07.096Z,8.63
2017-07-21T14:54:34.777Z,8.53
2017-07-21T14:57:04.076Z,6.37
2017-07-21T14:59:31.662Z,6.27
2017-07-21T15:02:00.190Z,5.87
2017-07-21T15:04:29.295Z,9.00
2017-07-21T15:06:57.981Z,8.57
2017-07-21T15:09:26.021Z,5.93
2017-07-21T15:11:53.890Z,6.87
2017-07-21T15:14:21.978Z,6.83
2017-07-21T15:16:51.641Z,7.43
2017-07-21T15:19:19.841Z,9.43
2017-07-21T15:21:49.825Z,6.43
2017-07-21T15:24:17.835Z,6.87
2017-07-21T15:26:45.450Z,6.33
2017-07-21T15:29:14.830Z,6.30
2017-07-21T15:31:44.493Z,6.00
2017-07-21T15:34:12.845Z,7.43
2017-07-21T15:36:40.875Z,6.20
2017-07-21T15:39:08.482Z,5.70
2017-07-21T15:41:36.950Z,5.53
2017-07-21T15:44:05.383Z,5.23
2017-07-21T15:46:33.758Z,6.43
2017-07-21T15:49:01.592Z,6.07
2017-07-21T15:51:29.886Z,5.90
2017-07-21T15:53:57.499Z,5.43
2017-07-21T15:56:25.175Z,5.10
2017-07-21T15:58:52.791Z,5.47
2017-07-21T16:01:20.856Z,5.63
2017-07-21T16:03:49.434Z,5.77
2017-07-21T16:06:18.563Z,8.00
2017-07-21T16:08:46.203Z,6.17
2017-07-21T16:11:13.778Z,6.17
2017-07-21T16:13:42.124Z,7.40
2017-07-21T16:16:10.802Z,7.77
2017-07-21T16:18:38.419Z,5.73
2017-07-21T16:21:06.022Z,5.50
2017-07-21T16:23:33.671Z,8.67
2017-07-21T16:26:01.267Z,6.53
2017-07-21T16:28:28.821Z,6.93
2017-07-21T16:30:56.426Z,6.30
2017-07-21T16:33:24.071Z,6.93
2017-07-21T16:35:51.638Z,7.53
2017-07-21T16:38:19.323Z,5.57
2017-07-21T16:40:47.563Z,6.33
2017-07-21T16:43:15.164Z,5.70
2017-07-21T16:45:42.779Z,5.87
2017-07-21T16:48:10.379Z,6.60
2017-07-21T16:50:37.999Z,6.30
2017-07-21T16:53:05.643Z,7.40
2017-07-21T16:55:33.230Z,6.70
2017-07-21T16:58:00.875Z,8.73
2017-07-21T17:00:29.509Z,6.83
2017-07-21T17:02:59.610Z,7.03
2017-07-21T17:05:28.429Z,8.00
2017-07-21T17:07:56.688Z,7.70
2017-07-21T17:10:26.686Z,9.13
2017-07-21T17:12:54.534Z,8.20
2017-07-21T17:15:22.343Z,8.00
2017-07-21T17:18:11.147Z,9.73
2017-07-21T17:20:39.554Z,9.20
2017-07-21T17:23:10.120Z,9.23
2017-07-21T17:25:38.386Z,8.07
2017-07-21T17:28:11.568Z,9.40
2017-07-21T17:30:40.458Z,14.60
2017-07-21T17:33:08.863Z,9.60
2017-07-21T17:38:28.300Z,10.20
2017-07-21T17:40:59.488Z,10.97
2017-07-21T17:43:31.440Z,10.00
2017-07-21T17:45:59.087Z,10.20
2017-07-21T17:48:38.157Z,14.50
2017-07-21T17:51:05.797Z,11.30
2017-07-21T17:53:33.922Z,10.43
2017-07-21T17:56:13.233Z,10.07
2017-07-21T17:58:40.867Z,12.10
2017-07-21T18:01:08.475Z,10.13
2017-07-21T18:03:36.160Z,10.67
2017-07-21T18:06:03.755Z,11.50
2017-07-21T18:08:31.382Z,11.40
2017-07-21T18:10:59.017Z,12.43
2017-07-21T18:13:26.704Z,13.83
2017-07-21T18:15:54.353Z,11.77
2017-07-21T18:18:21.943Z,14.87
2017-07-21T18:20:49.763Z,15.53
2017-07-21T18:23:17.487Z,10.90
2017-07-21T18:25:45.142Z,11.20
2017-07-21T18:28:12.790Z,11.90
2017-07-21T18:30:40.475Z,13.27
2017-07-21T18:33:08.104Z,11.53
2017-07-21T18:35:35.740Z,12.27
2017-07-21T18:38:03.348Z,11.70
2017-07-21T18:40:31.595Z,15.00
2017-07-21T18:42:59.198Z,13.03
2017-07-21T18:45:28.092Z,12.40
2017-07-21T18:47:55.788Z,15.80
2017-07-21T18:50:23.439Z,11.17
2017-07-21T18:52:51.109Z,13.60
2017-07-21T18:55:18.918Z,19.10
2017-07-21T18:57:47.715Z,14.27
2017-07-21T19:00:15.427Z,16.20
2017-07-21T19:02:43.230Z,21.33
2017-07-21T19:05:11.292Z,17.80
2017-07-21T19:07:38.963Z,16.73
2017-07-21T19:10:08.484Z,17.27
2017-07-21T19:12:36.906Z,23.97
2017-07-21T19:15:05.369Z,31.03
2017-07-21T19:17:33.151Z,22.90
2017-07-21T19:20:00.824Z,22.23
2017-07-21T19:22:29.528Z,17.27
2017-07-21T19:24:57.253Z,19.30
2017-07-21T19:27:24.890Z,23.63
2017-07-21T19:29:52.646Z,18.50
2017-07-21T19:32:20.359Z,17.97
2017-07-21T19:34:48.930Z,16.83
2017-07-21T19:37:18.114Z,21.53
2017-07-21T19:39:45.914Z,13.20
2017-07-21T19:42:13.618Z,16.77
2017-07-21T19:44:41.338Z,12.97
2017-07-21T19:47:09.578Z,11.43
2017-07-21T19:49:37.190Z,13.87
2017-07-21T19:52:05.663Z,13.70
2017-07-21T19:54:34.859Z,11.23
2017-07-21T19:57:02.580Z,12.30
2017-07-21T19:59:30.269Z,17.90
2017-07-21T20:01:58.166Z,13.17
2017-07-21T20:04:25.810Z,11.10
2017-07-21T20:06:53.550Z,11.50
2017-07-21T20:09:23.144Z,11.20
2017-07-21T20:11:50.860Z,13.37
2017-07-21T20:14:18.525Z,15.30
2017-07-21T20:16:46.246Z,16.40
2017-07-21T20:19:13.941Z,14.37
2017-07-21T20:21:42.770Z,14.73
2017-07-21T20:24:10.587Z,14.57
2017-07-21T20:26:38.237Z,16.57
2017-07-21T20:29:05.915Z,12.60
2017-07-21T20:31:33.655Z,17.87
2017-07-21T20:34:02.088Z,13.60
2017-07-21T20:36:29.872Z,12.40
2017-07-21T20:38:57.524Z,13.77
2017-07-21T20:41:25.214Z,11.47
2017-07-21T20:43:52.835Z,10.40
2017-07-21T20:46:20.561Z,9.63
2017-07-21T20:48:48.181Z,12.23
2017-07-21T20:51:15.977Z,12.53
2017-07-21T20:53:43.747Z,15.77
2017-07-21T20:56:12.647Z,20.90
2017-07-21T20:58:40.377Z,13.70
2017-07-21T21:01:08.021Z,19.43
2017-07-21T21:03:35.776Z,26.83
2017-07-21T21:06:03.517Z,14.30
2017-07-21T21:08:32.201Z,10.43
2017-07-21T21:11:26.434Z,13.20
2017-07-21T21:13:54.067Z,11.23
2017-07-21T21:16:22.040Z,10.50
2017-07-21T21:18:49.727Z,11.07
2017-07-21T21:21:18.382Z,9.93
2017-07-21T21:23:46.088Z,12.17
2017-07-21T21:26:13.973Z,12.70
2017-07-21T21:31:49.000Z,13.90
2017-07-21T21:34:16.680Z,10.40
2017-07-21T21:36:45.796Z,16.73
2017-07-21T21:39:13.469Z,11.23
2017-07-21T21:41:41.176Z,14.33
2017-07-21T21:44:08.977Z,10.37
2017-07-21T21:46:36.615Z,10.90
2017-07-21T21:49:04.262Z,14.17
2017-07-21T21:51:31.905Z,11.63
2017-07-21T21:53:59.565Z,17.10
2017-07-21T21:56:27.236Z,16.83
2017-07-21T21:58:54.946Z,12.23
2017-07-21T22:01:22.619Z,11.87
2017-07-21T22:03:50.361Z,16.77
2017-07-21T22:06:18.610Z,11.83
2017-07-21T22:08:46.357Z,19.13
2017-07-21T22:11:14.067Z,22.27
2017-07-21T22:13:41.885Z,15.00
2017-07-21T22:16:11.738Z,19.10
2017-07-21T22:18:49.593Z,10.30
2017-07-21T22:21:17.331Z,10.77
2017-07-21T22:23:45.059Z,18.27
2017-07-21T22:26:13.088Z,21.00
2017-07-21T22:28:40.707Z,20.87
2017-07-21T22:31:09.376Z,16.53
2017-07-21T22:33:37.031Z,15.50
2017-07-21T22:36:05.071Z,15.43
2017-07-21T22:38:32.833Z,16.33
2017-07-21T22:41:01.076Z,13.20
2017-07-21T22:43:28.731Z,14.13
2017-07-21T22:45:56.497Z,16.57
2017-07-21T22:48:24.450Z,13.47
2017-07-21T22:50:52.637Z,12.33
2017-07-21T22:53:20.304Z,11.60
2017-07-21T22:55:47.936Z,11.67
2017-07-21T22:58:15.578Z,12.30
2017-07-21T23:00:43.355Z,11.23
2017-07-21T23:03:11.040Z,11.10
2017-07-21T23:05:39.191Z,12.03
2017-07-21T23:08:06.828Z,11.27
2017-07-21T23:10:34.492Z,11.27
2017-07-21T23:13:02.106Z,14.60
2017-07-21T23:15:29.729Z,13.80
2017-07-21T23:17:57.455Z,13.77
2017-07-21T23:21:02.737Z,14.10
2017-07-21T23:26:58.975Z,12.17
2017-07-21T23:32:49.426Z,10.93
2017-07-21T23:38:46.923Z,11.40
2017-07-21T23:47:55.312Z,12.17
2017-07-21T23:50:23.607Z,13.33
2017-07-21T23:58:57.144Z,11.87
